createdAt,value
2019-04-01T00:00:05.289Z,7.74
2019-04-01T00:00:18.454Z,7.73
2019-04-01T00:00:30.570Z,7.73
2019-04-01T00:00:42.740Z,7.73
2019-04-01T00:00:54.939Z,7.74
2019-04-01T00:01:09.099Z,7.72
2019-04-01T00:01:21.267Z,7.72
2019-04-01T00:01:33.432Z,7.72
2019-04-01T00:01:46.567Z,7.71
2019-04-01T00:01:58.723Z,7.72
2019-04-01T00:02:10.932Z,7.71
2019-04-01T00:02:23.063Z,7.7
2019-04-01T00:02:35.201Z,7.7
2019-04-01T00:02:47.348Z,7.7
2019-04-01T00:02:59.525Z,7.7
2019-04-01T00:03:11.673Z,7.7
2019-04-01T00:03:23.816Z,7.7
2019-04-01T00:03:35.990Z,7.7
2019-04-01T00:03:48.227Z,7.7
2019-04-01T00:04:00.367Z,7.7
2019-04-01T00:04:12.499Z,7.69
2019-04-01T00:04:24.636Z,7.69
2019-04-01T00:04:36.802Z,7.68
2019-04-01T00:04:48.948Z,7.7
2019-04-01T00:05:01.103Z,7.68
2019-04-01T00:05:13.232Z,7.69
2019-04-01T00:05:25.393Z,7.68
2019-04-01T00:05:37.546Z,7.69
2019-04-01T00:05:49.706Z,7.68
2019-04-01T00:06:01.844Z,7.68
2019-04-01T00:06:13.981Z,7.67
2019-04-01T00:06:26.112Z,7.66
2019-04-01T00:06:39.248Z,7.67
2019-04-01T00:06:51.417Z,7.68
2019-04-01T00:07:03.641Z,7.67
2019-04-01T00:07:15.779Z,7.66
2019-04-01T00:07:27.919Z,7.67
2019-04-01T00:07:41.062Z,7.67
2019-04-01T00:07:53.188Z,7.67
2019-04-01T00:08:06.332Z,7.67
2019-04-01T00:08:19.480Z,7.66
2019-04-01T00:08:31.665Z,7.66
2019-04-01T00:08:44.837Z,7.65
2019-04-01T00:08:57.020Z,7.65
2019-04-01T00:09:10.143Z,7.65
2019-04-01T00:09:22.285Z,7.65
2019-04-01T00:09:34.496Z,7.65
2019-04-01T00:09:46.558Z,7.64
2019-04-01T00:09:58.726Z,7.64
2019-04-01T00:10:10.834Z,7.65
2019-04-01T00:10:22.960Z,7.64
2019-04-01T00:10:35.109Z,7.64
2019-04-01T00:10:47.302Z,7.64
2019-04-01T00:10:59.453Z,7.64
2019-04-01T00:11:11.588Z,7.64
2019-04-01T00:11:23.733Z,7.63
2019-04-01T00:11:35.865Z,7.63
2019-04-01T00:11:48.038Z,7.63
2019-04-01T00:12:01.177Z,7.62
2019-04-01T00:12:13.311Z,7.63
2019-04-01T00:12:25.438Z,7.63
2019-04-01T00:12:37.600Z,7.62
2019-04-01T00:12:50.752Z,7.62
2019-04-01T00:13:02.891Z,7.62
2019-04-01T00:13:15.071Z,7.62
2019-04-01T00:13:27.189Z,7.61
2019-04-01T00:13:39.323Z,7.62
2019-04-01T00:13:51.489Z,7.62
2019-04-01T00:14:03.614Z,7.61
2019-04-01T00:14:16.748Z,7.61
2019-04-01T00:14:28.913Z,7.61
2019-04-01T00:14:41.034Z,7.61
2019-04-01T00:14:53.163Z,7.61
2019-04-01T00:15:05.292Z,7.6
2019-04-01T00:15:17.429Z,7.6
2019-04-01T00:15:29.549Z,7.61
2019-04-01T00:15:41.710Z,7.6
2019-04-01T00:15:53.834Z,7.59
2019-04-01T00:16:05.970Z,7.59
2019-04-01T00:16:18.129Z,7.6
2019-04-01T00:16:30.288Z,7.59
2019-04-01T00:16:42.459Z,7.59
2019-04-01T00:16:54.633Z,7.6
2019-04-01T00:17:06.860Z,7.58
2019-04-01T00:17:19.045Z,7.58
2019-04-01T00:17:31.204Z,7.58
2019-04-01T00:17:43.365Z,7.59
2019-04-01T00:17:55.518Z,7.58
2019-04-01T00:18:07.679Z,7.59
2019-04-01T00:18:19.813Z,7.58
2019-04-01T00:18:31.947Z,7.58
2019-04-01T00:18:44.114Z,7.59
2019-04-01T00:19:03.750Z,7.57
2019-04-01T00:19:15.340Z,7.56
2019-04-01T00:19:28.503Z,7.57
2019-04-01T00:19:41.666Z,7.56
2019-04-01T00:19:53.829Z,7.57
2019-04-01T00:20:05.993Z,7.55
2019-04-01T00:20:18.142Z,7.55
2019-04-01T00:20:30.332Z,7.55
2019-04-01T00:20:42.489Z,7.55
2019-04-01T00:20:54.627Z,7.55
2019-04-01T00:21:06.756Z,7.54
2019-04-01T00:21:18.895Z,7.54
2019-04-01T00:21:31.040Z,7.55
2019-04-01T00:21:45.174Z,7.54
2019-04-01T00:21:57.295Z,7.55
2019-04-01T00:22:09.428Z,7.54
2019-04-01T00:22:21.564Z,7.54
2019-04-01T00:22:33.742Z,7.52
2019-04-01T00:22:45.970Z,7.52
2019-04-01T00:22:58.117Z,7.53
2019-04-01T00:23:10.407Z,7.53
2019-04-01T00:23:22.395Z,7.53
2019-04-01T00:23:34.541Z,7.53
2019-04-01T00:23:46.707Z,7.53
2019-04-01T00:23:58.850Z,7.53
2019-04-01T00:24:11.011Z,7.51
2019-04-01T00:24:23.145Z,7.52
2019-04-01T00:24:35.293Z,7.51
2019-04-01T00:24:47.439Z,7.51
2019-04-01T00:24:59.622Z,7.52
2019-04-01T00:25:11.755Z,7.5
2019-04-01T00:25:24.857Z,7.51
2019-04-01T00:25:36.982Z,7.5
2019-04-01T00:25:49.196Z,7.5
2019-04-01T00:26:01.326Z,7.49
2019-04-01T00:26:14.511Z,7.49
2019-04-01T00:26:26.646Z,7.49
2019-04-01T00:26:38.790Z,7.48
2019-04-01T00:26:50.921Z,7.48
2019-04-01T00:27:03.107Z,7.48
2019-04-01T00:27:15.245Z,7.49
2019-04-01T00:27:27.383Z,7.49
2019-04-01T00:27:39.545Z,7.48
2019-04-01T00:27:52.693Z,7.48
2019-04-01T00:28:04.896Z,7.47
2019-04-01T00:28:17.070Z,7.47
2019-04-01T00:28:30.231Z,7.47
2019-04-01T00:28:42.377Z,7.47
2019-04-01T00:28:54.521Z,7.46
2019-04-01T00:29:06.688Z,7.47
2019-04-01T00:29:18.840Z,7.47
2019-04-01T00:29:31.004Z,7.47
2019-04-01T00:29:44.136Z,7.48
2019-04-01T00:29:56.272Z,7.47
2019-04-01T00:30:08.420Z,7.47
2019-04-01T00:30:21.592Z,7.46
2019-04-01T00:30:34.745Z,7.46
2019-04-01T00:30:46.914Z,7.47
2019-04-01T00:30:59.074Z,7.47
2019-04-01T00:31:12.199Z,7.47
2019-04-01T00:31:25.330Z,7.47
2019-04-01T00:31:37.466Z,7.46
2019-04-01T00:31:49.596Z,7.46
2019-04-01T00:32:01.754Z,7.46
2019-04-01T00:32:13.901Z,7.46
2019-04-01T00:32:26.061Z,7.46
2019-04-01T00:32:38.196Z,7.45
2019-04-01T00:32:51.336Z,7.44
2019-04-01T00:33:03.478Z,7.46
2019-04-01T00:33:15.621Z,7.46
2019-04-01T00:33:27.785Z,7.46
2019-04-01T00:33:39.921Z,7.46
2019-04-01T00:33:52.046Z,7.45
2019-04-01T00:34:04.187Z,7.45
2019-04-01T00:34:16.344Z,7.46
2019-04-01T00:34:28.508Z,7.45
2019-04-01T00:34:40.695Z,7.45
2019-04-01T00:34:52.852Z,7.46
2019-04-01T00:35:05.985Z,7.45
2019-04-01T00:35:18.141Z,7.45
2019-04-01T00:35:30.302Z,7.45
2019-04-01T00:35:42.432Z,7.45
2019-04-01T00:35:54.569Z,7.44
2019-04-01T00:36:06.737Z,7.43
2019-04-01T00:36:18.873Z,7.44
2019-04-01T00:36:31.030Z,7.45
2019-04-01T00:36:43.174Z,7.45
2019-04-01T00:36:55.304Z,7.46
2019-04-01T00:37:07.464Z,7.43
2019-04-01T00:37:19.617Z,7.43
2019-04-01T00:37:31.747Z,7.44
2019-04-01T00:37:43.937Z,7.43
2019-04-01T00:37:56.132Z,7.44
2019-04-01T00:38:08.310Z,7.43
2019-04-01T00:38:20.478Z,7.44
2019-04-01T00:38:32.633Z,7.44
2019-04-01T00:38:44.760Z,7.45
2019-04-01T00:38:56.922Z,7.44
2019-04-01T00:39:09.067Z,7.44
2019-04-01T00:39:21.240Z,7.44
2019-04-01T00:39:33.391Z,7.44
2019-04-01T00:39:45.549Z,7.43
2019-04-01T00:39:57.708Z,7.43
2019-04-01T00:40:09.854Z,7.43
2019-04-01T00:40:22.032Z,7.44
2019-04-01T00:40:34.199Z,7.43
2019-04-01T00:40:46.416Z,7.44
2019-04-01T00:40:58.600Z,7.43
2019-04-01T00:41:11.823Z,7.43
2019-04-01T00:41:23.938Z,7.43
2019-04-01T00:41:36.074Z,7.44
2019-04-01T00:41:48.262Z,7.44
2019-04-01T00:42:00.425Z,7.43
2019-04-01T00:42:12.630Z,7.43
2019-04-01T00:42:24.826Z,7.42
2019-04-01T00:42:36.982Z,7.44
2019-04-01T00:42:49.150Z,7.43
2019-04-01T00:43:01.281Z,7.43
2019-04-01T00:43:13.454Z,7.43
2019-04-01T00:43:25.642Z,7.43
2019-04-01T00:43:38.801Z,7.43
2019-04-01T00:43:50.959Z,7.42
2019-04-01T00:44:03.123Z,7.42
2019-04-01T00:44:15.263Z,7.42
2019-04-01T00:44:27.392Z,7.43
2019-04-01T00:44:41.522Z,7.43
2019-04-01T00:44:53.673Z,7.43
2019-04-01T00:45:05.788Z,7.42
2019-04-01T00:45:17.949Z,7.42
2019-04-01T00:45:30.907Z,7.42
2019-04-01T00:45:43.065Z,7.42
2019-04-01T00:45:55.351Z,7.41
2019-04-01T00:46:07.486Z,7.42
2019-04-01T00:46:19.676Z,7.42
2019-04-01T00:46:31.803Z,7.41
2019-04-01T00:46:43.968Z,7.42
2019-04-01T00:46:56.147Z,7.41
2019-04-01T00:47:09.307Z,7.42
2019-04-01T00:47:21.477Z,7.42
2019-04-01T00:47:33.649Z,7.41
2019-04-01T00:47:45.825Z,7.41
2019-04-01T00:47:58.959Z,7.41
2019-04-01T00:48:11.107Z,7.41
2019-04-01T00:48:23.312Z,7.42
2019-04-01T00:48:35.456Z,7.41
2019-04-01T00:48:47.585Z,7.41
2019-04-01T00:48:59.739Z,7.42
2019-04-01T00:49:11.882Z,7.41
2019-04-01T00:49:24.038Z,7.4
2019-04-01T00:49:36.194Z,7.4
2019-04-01T00:49:48.346Z,7.39
2019-04-01T00:50:00.506Z,7.41
2019-04-01T00:50:12.656Z,7.4
2019-04-01T00:50:24.824Z,7.4
2019-04-01T00:50:37.005Z,7.4
2019-04-01T00:50:49.133Z,7.4
2019-04-01T00:51:01.261Z,7.4
2019-04-01T00:51:14.382Z,7.4
2019-04-01T00:51:26.513Z,7.39
2019-04-01T00:51:38.657Z,7.4
2019-04-01T00:51:50.794Z,7.39
2019-04-01T00:52:03.958Z,7.39
2019-04-01T00:52:17.059Z,7.39
2019-04-01T00:52:29.179Z,7.38
2019-04-01T00:52:41.323Z,7.39
2019-04-01T00:52:53.448Z,7.39
2019-04-01T00:53:05.569Z,7.39
2019-04-01T00:53:19.681Z,7.39
2019-04-01T00:53:31.837Z,7.38
2019-04-01T00:53:44.003Z,7.38
2019-04-01T00:53:56.132Z,7.38
2019-04-01T00:54:08.284Z,7.39
2019-04-01T00:54:20.423Z,7.37
2019-04-01T00:54:33.549Z,7.39
2019-04-01T00:54:45.711Z,7.39
2019-04-01T00:54:57.851Z,7.38
2019-04-01T00:55:10.023Z,7.38
2019-04-01T00:55:22.153Z,7.38
2019-04-01T00:55:34.316Z,7.38
2019-04-01T00:55:46.491Z,7.38
2019-04-01T00:55:58.662Z,7.38
2019-04-01T00:56:10.794Z,7.37
2019-04-01T00:56:22.921Z,7.38
2019-04-01T00:56:35.090Z,7.38
2019-04-01T00:56:47.257Z,7.38
2019-04-01T00:56:59.437Z,7.37
2019-04-01T00:57:11.576Z,7.37
2019-04-01T00:57:23.702Z,7.36
2019-04-01T00:57:35.812Z,7.36
2019-04-01T00:57:48.936Z,7.36
2019-04-01T00:58:01.072Z,7.36
2019-04-01T00:58:13.250Z,7.36
2019-04-01T00:58:25.426Z,7.37
2019-04-01T00:58:39.624Z,7.36
2019-04-01T00:58:51.761Z,7.36
2019-04-01T00:59:03.916Z,7.35
2019-04-01T00:59:16.086Z,7.36
2019-04-01T00:59:28.267Z,7.35
2019-04-01T00:59:40.405Z,7.35
2019-04-01T00:59:52.575Z,7.36
2019-04-01T01:00:04.722Z,7.35
2019-04-01T01:00:16.856Z,7.34
2019-04-01T01:00:29.035Z,7.35
2019-04-01T01:00:41.197Z,7.35
2019-04-01T01:00:54.337Z,7.34
2019-04-01T01:01:06.485Z,7.34
2019-04-01T01:01:18.678Z,7.34
2019-04-01T01:01:31.809Z,7.34
2019-04-01T01:01:43.968Z,7.33
2019-04-01T01:01:56.131Z,7.34
2019-04-01T01:02:08.267Z,7.32
2019-04-01T01:02:20.422Z,7.33
2019-04-01T01:02:32.567Z,7.33
2019-04-01T01:02:45.717Z,7.31
2019-04-01T01:02:58.859Z,7.32
2019-04-01T01:03:12.010Z,7.32
2019-04-01T01:03:24.140Z,7.31
2019-04-01T01:03:36.280Z,7.32
2019-04-01T01:03:49.417Z,7.32
2019-04-01T01:04:02.540Z,7.31
2019-04-01T01:04:14.719Z,7.31
2019-04-01T01:04:26.858Z,7.31
2019-04-01T01:04:39.076Z,7.31
2019-04-01T01:04:51.195Z,7.31
2019-04-01T01:05:03.318Z,7.3
2019-04-01T01:05:15.478Z,7.3
2019-04-01T01:05:27.636Z,7.3
2019-04-01T01:05:39.805Z,7.3
2019-04-01T01:05:52.061Z,7.29
2019-04-01T01:06:04.216Z,7.29
2019-04-01T01:06:16.347Z,7.3
2019-04-01T01:06:29.512Z,7.3
2019-04-01T01:06:41.649Z,7.29
2019-04-01T01:06:53.787Z,7.3
2019-04-01T01:07:05.930Z,7.29
2019-04-01T01:07:18.060Z,7.29
2019-04-01T01:07:31.185Z,7.29
2019-04-01T01:07:44.299Z,7.29
2019-04-01T01:07:56.417Z,7.29
2019-04-01T01:08:08.563Z,7.29
2019-04-01T01:08:20.679Z,7.28
2019-04-01T01:08:32.826Z,7.28
2019-04-01T01:08:45.017Z,7.27
2019-04-01T01:08:57.196Z,7.28
2019-04-01T01:09:09.318Z,7.28
2019-04-01T01:09:21.484Z,7.28
2019-04-01T01:09:34.613Z,7.27
2019-04-01T01:09:47.740Z,7.27
2019-04-01T01:09:59.861Z,7.27
2019-04-01T01:10:11.988Z,7.27
2019-04-01T01:10:24.115Z,7.27
2019-04-01T01:10:36.264Z,7.27
2019-04-01T01:10:48.415Z,7.27
2019-04-01T01:11:00.594Z,7.28
2019-04-01T01:11:12.737Z,7.26
2019-04-01T01:11:24.895Z,7.26
2019-04-01T01:11:37.079Z,7.26
2019-04-01T01:11:49.231Z,7.26
2019-04-01T01:12:01.431Z,7.26
2019-04-01T01:12:13.547Z,7.26
2019-04-01T01:12:25.709Z,7.26
2019-04-01T01:12:37.824Z,7.26
2019-04-01T01:12:49.946Z,7.25
2019-04-01T01:13:03.084Z,7.25
2019-04-01T01:13:16.220Z,7.25
2019-04-01T01:13:28.401Z,7.25
2019-04-01T01:13:40.569Z,7.26
2019-04-01T01:13:52.736Z,7.25
2019-04-01T01:14:04.886Z,7.25
2019-04-01T01:14:17.091Z,7.24
2019-04-01T01:14:29.254Z,7.23
2019-04-01T01:14:41.376Z,7.23
2019-04-01T01:14:53.557Z,7.23
2019-04-01T01:15:05.688Z,7.24
2019-04-01T01:15:17.828Z,7.25
2019-04-01T01:15:29.940Z,7.23
2019-04-01T01:15:42.168Z,7.24
2019-04-01T01:15:54.325Z,7.24
2019-04-01T01:16:06.467Z,7.23
2019-04-01T01:16:18.599Z,7.23
2019-04-01T01:16:30.735Z,7.23
2019-04-01T01:16:42.844Z,7.23
2019-04-01T01:16:54.971Z,7.25
2019-04-01T01:17:07.106Z,7.23
2019-04-01T01:17:19.261Z,7.23
2019-04-01T01:17:31.445Z,7.23
2019-04-01T01:17:43.631Z,7.22
2019-04-01T01:17:55.766Z,7.22
2019-04-01T01:18:07.915Z,7.23
2019-04-01T01:18:20.095Z,7.22
2019-04-01T01:18:32.226Z,7.23
2019-04-01T01:18:44.374Z,7.23
2019-04-01T01:18:56.502Z,7.23
2019-04-01T01:19:08.689Z,7.22
2019-04-01T01:19:20.845Z,7.22
2019-04-01T01:19:33.016Z,7.22
2019-04-01T01:19:45.153Z,7.21
2019-04-01T01:19:57.295Z,7.22
2019-04-01T01:20:10.417Z,7.21
2019-04-01T01:20:22.627Z,7.2
2019-04-01T01:20:37.471Z,7.21
2019-04-01T01:20:49.702Z,7.21
2019-04-01T01:21:02.852Z,7.2
2019-04-01T01:21:14.977Z,7.2
2019-04-01T01:21:29.147Z,7.21
2019-04-01T01:21:41.270Z,7.19
2019-04-01T01:21:53.405Z,7.19
2019-04-01T01:22:05.604Z,7.2
2019-04-01T01:22:17.757Z,7.2
2019-04-01T01:22:29.925Z,7.2
2019-04-01T01:22:42.058Z,7.2
2019-04-01T01:22:54.217Z,7.19
2019-04-01T01:23:06.349Z,7.18
2019-04-01T01:23:18.509Z,7.19
2019-04-01T01:23:30.622Z,7.19
2019-04-01T01:23:42.771Z,7.19
2019-04-01T01:23:54.923Z,7.17
2019-04-01T01:24:07.097Z,7.18
2019-04-01T01:24:20.269Z,7.17
2019-04-01T01:24:35.376Z,7.17
2019-04-01T01:24:47.518Z,7.18
2019-04-01T01:24:59.670Z,7.17
2019-04-01T01:25:11.803Z,7.17
2019-04-01T01:25:23.935Z,7.17
2019-04-01T01:25:36.062Z,7.17
2019-04-01T01:25:48.228Z,7.17
2019-04-01T01:26:01.407Z,7.17
2019-04-01T01:26:13.617Z,7.16
2019-04-01T01:26:25.744Z,7.16
2019-04-01T01:26:37.913Z,7.16
2019-04-01T01:26:50.074Z,7.15
2019-04-01T01:27:03.238Z,7.15
2019-04-01T01:27:15.392Z,7.15
2019-04-01T01:27:27.529Z,7.14
2019-04-01T01:27:39.687Z,7.14
2019-04-01T01:27:51.846Z,7.16
2019-04-01T01:28:03.997Z,7.15
2019-04-01T01:28:16.156Z,7.15
2019-04-01T01:28:28.310Z,7.14
2019-04-01T01:28:40.470Z,7.15
2019-04-01T01:28:52.624Z,7.15
2019-04-01T01:29:05.764Z,7.14
2019-04-01T01:29:17.931Z,7.14
2019-04-01T01:29:30.104Z,7.14
2019-04-01T01:29:42.228Z,7.14
2019-04-01T01:29:54.398Z,7.15
2019-04-01T01:30:06.590Z,7.14
2019-04-01T01:30:18.743Z,7.14
2019-04-01T01:30:30.906Z,7.14
2019-04-01T01:30:43.050Z,7.14
2019-04-01T01:30:55.238Z,7.14
2019-04-01T01:31:07.343Z,7.14
2019-04-01T01:31:19.490Z,7.13
2019-04-01T01:31:31.634Z,7.13
2019-04-01T01:31:43.813Z,7.13
2019-04-01T01:31:55.948Z,7.13
2019-04-01T01:32:09.109Z,7.12
2019-04-01T01:32:21.279Z,7.12
2019-04-01T01:32:33.442Z,7.13
2019-04-01T01:32:46.638Z,7.12
2019-04-01T01:32:58.766Z,7.12
2019-04-01T01:33:11.918Z,7.12
2019-04-01T01:33:24.045Z,7.13
2019-04-01T01:33:37.219Z,7.11
2019-04-01T01:33:50.416Z,7.11
2019-04-01T01:34:02.569Z,7.11
2019-04-01T01:34:14.714Z,7.11
2019-04-01T01:34:26.829Z,7.11
2019-04-01T01:34:39.006Z,7.12
2019-04-01T01:34:51.127Z,7.11
2019-04-01T01:35:03.248Z,7.11
2019-04-01T01:35:16.382Z,7.11
2019-04-01T01:35:28.526Z,7.11
2019-04-01T01:35:40.632Z,7.11
2019-04-01T01:35:52.759Z,7.1
2019-04-01T01:36:04.899Z,7.1
2019-04-01T01:36:18.025Z,7.1
2019-04-01T01:36:30.192Z,7.11
2019-04-01T01:36:42.321Z,7.1
2019-04-01T01:36:54.470Z,7.08
2019-04-01T01:37:06.616Z,7.1
2019-04-01T01:37:18.763Z,7.09
2019-04-01T01:37:30.905Z,7.1
2019-04-01T01:37:43.057Z,7.08
2019-04-01T01:37:56.186Z,7.1
2019-04-01T01:38:08.328Z,7.07
2019-04-01T01:38:21.485Z,7.08
2019-04-01T01:38:33.617Z,7.08
2019-04-01T01:38:45.791Z,7.09
2019-04-01T01:38:57.960Z,7.08
2019-04-01T01:39:10.085Z,7.09
2019-04-01T01:39:23.202Z,7.08
2019-04-01T01:39:35.369Z,7.08
2019-04-01T01:39:47.506Z,7.08
2019-04-01T01:39:59.678Z,7.07
2019-04-01T01:40:11.792Z,7.06
2019-04-01T01:40:23.919Z,7.07
2019-04-01T01:40:37.043Z,7.07
2019-04-01T01:40:49.177Z,7.06
2019-04-01T01:41:01.606Z,7.06
2019-04-01T01:41:14.734Z,7.07
2019-04-01T01:41:26.871Z,7.05
2019-04-01T01:41:39.060Z,7.07
2019-04-01T01:41:51.220Z,7.06
2019-04-01T01:42:04.368Z,7.06
2019-04-01T01:42:16.499Z,7.05
2019-04-01T01:42:28.626Z,7.06
2019-04-01T01:42:40.779Z,7.05
2019-04-01T01:42:53.894Z,7.04
2019-04-01T01:43:06.062Z,7.05
2019-04-01T01:43:18.264Z,7.04
2019-04-01T01:43:31.384Z,7.04
2019-04-01T01:43:44.521Z,7.05
2019-04-01T01:43:56.664Z,7.05
2019-04-01T01:44:08.827Z,7.03
2019-04-01T01:44:21.009Z,7.04
2019-04-01T01:44:33.159Z,7.04
2019-04-01T01:44:45.249Z,7.04
2019-04-01T01:44:57.382Z,7.03
2019-04-01T01:45:09.512Z,7.04
2019-04-01T01:45:21.655Z,7.02
2019-04-01T01:45:34.556Z,7.02
2019-04-01T01:45:46.686Z,7.03
2019-04-01T01:45:58.851Z,7.03
2019-04-01T01:46:10.990Z,7.02
2019-04-01T01:46:23.152Z,7.02
2019-04-01T01:46:35.309Z,7.02
2019-04-01T01:46:48.478Z,7.01
2019-04-01T01:47:00.598Z,7.01
2019-04-01T01:47:13.788Z,7.01
2019-04-01T01:47:25.946Z,7
2019-04-01T01:47:38.135Z,7.01
2019-04-01T01:47:50.292Z,7
2019-04-01T01:48:02.429Z,7.01
2019-04-01T01:48:15.532Z,7.01
2019-04-01T01:48:27.688Z,6.99
2019-04-01T01:48:39.824Z,7.01
2019-04-01T01:48:52.985Z,7
2019-04-01T01:49:05.107Z,6.99
2019-04-01T01:49:17.276Z,6.99
2019-04-01T01:49:30.396Z,6.98
2019-04-01T01:49:42.620Z,6.99
2019-04-01T01:49:54.773Z,6.99
2019-04-01T01:50:06.919Z,6.99
2019-04-01T01:50:19.075Z,7
2019-04-01T01:50:31.212Z,6.99
2019-04-01T01:50:43.371Z,6.98
2019-04-01T01:50:55.524Z,6.99
2019-04-01T01:51:07.678Z,6.99
2019-04-01T01:51:19.824Z,6.98
2019-04-01T01:51:32.016Z,6.98
2019-04-01T01:51:44.172Z,6.97
2019-04-01T01:51:56.301Z,6.97
2019-04-01T01:52:08.472Z,6.96
2019-04-01T01:52:20.599Z,6.98
2019-04-01T01:52:32.750Z,6.98
2019-04-01T01:52:44.908Z,6.97
2019-04-01T01:52:57.047Z,6.96
2019-04-01T01:53:09.174Z,6.96
2019-04-01T01:53:21.324Z,6.97
2019-04-01T01:53:33.488Z,6.97
2019-04-01T01:53:47.616Z,6.98
2019-04-01T01:53:59.772Z,6.96
2019-04-01T01:54:11.882Z,6.96
2019-04-01T01:54:24.035Z,6.96
2019-04-01T01:54:36.179Z,6.95
2019-04-01T01:54:49.340Z,6.97
2019-04-01T01:55:01.523Z,6.96
2019-04-01T01:55:13.652Z,6.95
2019-04-01T01:55:25.820Z,6.96
2019-04-01T01:55:37.975Z,6.95
2019-04-01T01:55:50.164Z,6.95
2019-04-01T01:56:02.301Z,6.95
2019-04-01T01:56:14.495Z,6.95
2019-04-01T01:56:27.641Z,6.95
2019-04-01T01:56:39.837Z,6.94
2019-04-01T01:56:51.976Z,6.94
2019-04-01T01:57:04.121Z,6.94
2019-04-01T01:57:17.245Z,6.95
2019-04-01T01:57:29.373Z,6.94
2019-04-01T01:57:41.552Z,6.94
2019-04-01T01:57:53.676Z,6.95
2019-04-01T01:58:06.806Z,6.94
2019-04-01T01:58:18.951Z,6.93
2019-04-01T01:58:31.073Z,6.94
2019-04-01T01:58:43.229Z,6.93
2019-04-01T01:58:55.356Z,6.94
2019-04-01T01:59:07.495Z,6.94
2019-04-01T01:59:19.665Z,6.91
2019-04-01T01:59:31.793Z,6.92
2019-04-01T01:59:43.999Z,6.92
2019-04-01T01:59:56.134Z,6.91
2019-04-01T02:00:08.269Z,6.91
2019-04-01T02:00:20.433Z,6.92
2019-04-01T02:00:32.582Z,6.91
2019-04-01T02:00:44.730Z,6.91
2019-04-01T02:00:56.944Z,6.91
2019-04-01T02:01:09.434Z,6.91
2019-04-01T02:01:21.533Z,6.91
2019-04-01T02:01:33.678Z,6.9
2019-04-01T02:01:46.793Z,6.9
2019-04-01T02:01:58.934Z,6.89
2019-04-01T02:02:11.091Z,6.91
2019-04-01T02:02:23.219Z,6.9
2019-04-01T02:02:35.403Z,6.89
2019-04-01T02:02:47.551Z,6.9
2019-04-01T02:02:59.719Z,6.89
2019-04-01T02:03:12.827Z,6.89
2019-04-01T02:03:24.971Z,6.89
2019-04-01T02:03:37.096Z,6.89
2019-04-01T02:03:49.227Z,6.89
2019-04-01T02:04:01.374Z,6.88
2019-04-01T02:04:13.496Z,6.88
2019-04-01T02:04:25.623Z,6.89
2019-04-01T02:04:37.758Z,6.87
2019-04-01T02:04:49.976Z,6.88
2019-04-01T02:05:02.051Z,6.88
2019-04-01T02:05:14.210Z,6.87
2019-04-01T02:05:27.331Z,6.86
2019-04-01T02:05:39.450Z,6.86
2019-04-01T02:05:51.589Z,6.87
2019-04-01T02:06:03.756Z,6.86
2019-04-01T02:06:16.915Z,6.86
2019-04-01T02:06:29.124Z,6.86
2019-04-01T02:06:41.269Z,6.85
2019-04-01T02:06:53.398Z,6.85
2019-04-01T02:07:05.544Z,6.85
2019-04-01T02:07:18.702Z,6.85
2019-04-01T02:07:30.854Z,6.85
2019-04-01T02:07:42.995Z,6.84
2019-04-01T02:07:55.170Z,6.85
2019-04-01T02:08:07.324Z,6.85
2019-04-01T02:08:20.459Z,6.84
2019-04-01T02:08:32.641Z,6.85
2019-04-01T02:08:44.789Z,6.84
2019-04-01T02:08:56.939Z,6.84
2019-04-01T02:09:09.113Z,6.84
2019-04-01T02:09:21.278Z,6.84
2019-04-01T02:09:33.407Z,6.83
2019-04-01T02:09:45.604Z,6.82
2019-04-01T02:09:57.757Z,6.82
2019-04-01T02:10:09.911Z,6.83
2019-04-01T02:10:22.103Z,6.82
2019-04-01T02:10:34.227Z,6.82
2019-04-01T02:10:46.386Z,6.83
2019-04-01T02:10:59.530Z,6.82
2019-04-01T02:11:11.695Z,6.82
2019-04-01T02:11:24.816Z,6.82
2019-04-01T02:11:36.959Z,6.83
2019-04-01T02:11:49.098Z,6.81
2019-04-01T02:12:01.233Z,6.82
2019-04-01T02:12:13.443Z,6.81
2019-04-01T02:12:25.602Z,6.8
2019-04-01T02:12:37.765Z,6.82
2019-04-01T02:12:49.886Z,6.8
2019-04-01T02:13:02.002Z,6.8
2019-04-01T02:13:15.151Z,6.81
2019-04-01T02:13:29.290Z,6.81
2019-04-01T02:13:41.450Z,6.8
2019-04-01T02:13:53.605Z,6.81
2019-04-01T02:14:05.766Z,6.81
2019-04-01T02:14:17.912Z,6.8
2019-04-01T02:14:30.048Z,6.79
2019-04-01T02:14:42.233Z,6.79
2019-04-01T02:14:54.373Z,6.79
2019-04-01T02:15:06.592Z,6.79
2019-04-01T02:15:18.751Z,6.79
2019-04-01T02:15:30.876Z,6.79
2019-04-01T02:15:43.051Z,6.78
2019-04-01T02:15:56.172Z,6.78
2019-04-01T02:16:08.367Z,6.78
2019-04-01T02:16:20.503Z,6.78
2019-04-01T02:16:32.631Z,6.78
2019-04-01T02:16:44.762Z,6.77
2019-04-01T02:16:56.941Z,6.78
2019-04-01T02:17:09.080Z,6.78
2019-04-01T02:17:21.266Z,6.77
2019-04-01T02:17:33.430Z,6.77
2019-04-01T02:17:46.577Z,6.77
2019-04-01T02:17:58.718Z,6.77
2019-04-01T02:18:10.839Z,6.77
2019-04-01T02:18:23.009Z,6.77
2019-04-01T02:18:35.161Z,6.77
2019-04-01T02:18:47.291Z,6.77
2019-04-01T02:18:59.444Z,6.75
2019-04-01T02:19:11.571Z,6.77
2019-04-01T02:19:23.701Z,6.76
2019-04-01T02:19:36.889Z,6.76
2019-04-01T02:19:49.034Z,6.76
2019-04-01T02:20:01.190Z,6.77
2019-04-01T02:20:13.348Z,6.75
2019-04-01T02:20:25.502Z,6.75
2019-04-01T02:20:37.670Z,6.76
2019-04-01T02:20:49.795Z,6.76
2019-04-01T02:21:01.913Z,6.74
2019-04-01T02:21:14.073Z,6.74
2019-04-01T02:21:26.227Z,6.75
2019-04-01T02:21:38.380Z,6.75
2019-04-01T02:21:50.529Z,6.75
2019-04-01T02:22:02.736Z,6.74
2019-04-01T02:22:14.881Z,6.75
2019-04-01T02:22:28.032Z,6.73
2019-04-01T02:22:40.175Z,6.75
2019-04-01T02:22:52.310Z,6.74
2019-04-01T02:23:05.455Z,6.74
2019-04-01T02:23:17.624Z,6.73
2019-04-01T02:23:29.736Z,6.74
2019-04-01T02:23:41.877Z,6.74
2019-04-01T02:23:54.038Z,6.73
2019-04-01T02:24:06.179Z,6.74
2019-04-01T02:24:18.320Z,6.73
2019-04-01T02:24:31.470Z,6.74
2019-04-01T02:24:43.605Z,6.74
2019-04-01T02:24:55.807Z,6.73
2019-04-01T02:25:07.923Z,6.72
2019-04-01T02:25:20.063Z,6.72
2019-04-01T02:25:32.192Z,6.72
2019-04-01T02:25:44.354Z,6.73
2019-04-01T02:25:56.497Z,6.72
2019-04-01T02:26:08.629Z,6.72
2019-04-01T02:26:20.775Z,6.71
2019-04-01T02:26:33.914Z,6.72
2019-04-01T02:26:47.028Z,6.72
2019-04-01T02:26:59.163Z,6.71
2019-04-01T02:27:11.302Z,6.72
2019-04-01T02:27:23.470Z,6.71
2019-04-01T02:27:35.605Z,6.71
2019-04-01T02:27:47.783Z,6.71
2019-04-01T02:27:59.917Z,6.71
2019-04-01T02:28:13.082Z,6.7
2019-04-01T02:28:25.205Z,6.71
2019-04-01T02:28:37.364Z,6.7
2019-04-01T02:28:49.521Z,6.7
2019-04-01T02:29:01.666Z,6.71
2019-04-01T02:29:13.810Z,6.71
2019-04-01T02:29:26.038Z,6.7
2019-04-01T02:29:38.162Z,6.69
2019-04-01T02:29:50.330Z,6.69
2019-04-01T02:30:02.492Z,6.71
2019-04-01T02:30:14.653Z,6.7
2019-04-01T02:30:26.826Z,6.69
2019-04-01T02:30:38.962Z,6.69
2019-04-01T02:30:51.131Z,6.69
2019-04-01T02:31:03.287Z,6.7
2019-04-01T02:31:15.403Z,6.69
2019-04-01T02:31:27.532Z,6.69
2019-04-01T02:31:39.676Z,6.69
2019-04-01T02:31:51.799Z,6.69
2019-04-01T02:32:03.946Z,6.68
2019-04-01T02:32:16.080Z,6.68
2019-04-01T02:32:28.221Z,6.69
2019-04-01T02:32:41.326Z,6.68
2019-04-01T02:32:53.480Z,6.68
2019-04-01T02:33:05.585Z,6.68
2019-04-01T02:33:18.724Z,6.67
2019-04-01T02:33:30.996Z,6.67
2019-04-01T02:33:43.078Z,6.68
2019-04-01T02:33:55.224Z,6.67
2019-04-01T02:34:08.352Z,6.68
2019-04-01T02:34:20.491Z,6.67
2019-04-01T02:34:32.668Z,6.67
2019-04-01T02:34:44.855Z,6.67
2019-04-01T02:34:57.049Z,6.67
2019-04-01T02:35:10.131Z,6.67
2019-04-01T02:35:22.265Z,6.67
2019-04-01T02:35:35.384Z,6.66
2019-04-01T02:35:47.538Z,6.66
2019-04-01T02:36:00.681Z,6.66
2019-04-01T02:36:12.842Z,6.65
2019-04-01T02:36:24.965Z,6.65
2019-04-01T02:36:37.110Z,6.65
2019-04-01T02:36:49.264Z,6.65
2019-04-01T02:37:02.425Z,6.66
2019-04-01T02:37:14.557Z,6.67
2019-04-01T02:37:26.696Z,6.65
2019-04-01T02:37:38.833Z,6.65
2019-04-01T02:37:50.997Z,6.65
2019-04-01T02:38:03.131Z,6.65
2019-04-01T02:38:16.248Z,6.65
2019-04-01T02:38:28.417Z,6.64
2019-04-01T02:38:42.524Z,6.64
2019-04-01T02:38:54.665Z,6.65
2019-04-01T02:39:06.855Z,6.63
2019-04-01T02:39:19.059Z,6.65
2019-04-01T02:39:31.206Z,6.63
2019-04-01T02:39:43.359Z,6.63
2019-04-01T02:39:55.494Z,6.64
2019-04-01T02:40:07.611Z,6.64
2019-04-01T02:40:22.430Z,6.63
2019-04-01T02:40:34.836Z,6.63
2019-04-01T02:40:48.997Z,6.62
2019-04-01T02:41:01.190Z,6.63
2019-04-01T02:41:13.282Z,6.63
2019-04-01T02:41:26.392Z,6.63
2019-04-01T02:41:40.549Z,6.63
2019-04-01T02:41:52.663Z,6.62
2019-04-01T02:42:04.826Z,6.62
2019-04-01T02:42:17.030Z,6.62
2019-04-01T02:42:30.136Z,6.62
2019-04-01T02:42:42.276Z,6.62
2019-04-01T02:42:55.416Z,6.62
2019-04-01T02:43:07.550Z,6.62
2019-04-01T02:43:19.681Z,6.62
2019-04-01T02:43:31.841Z,6.62
2019-04-01T02:43:43.968Z,6.63
2019-04-01T02:43:56.123Z,6.62
2019-04-01T02:44:08.294Z,6.62
2019-04-01T02:44:20.409Z,6.62
2019-04-01T02:44:32.586Z,6.62